SAMR/AFA METAR and TAF weather

Enter ICAO airport designator
Station Type Date Time Source
SAMR METAR 2018/12/08 19:30 UTC NOAA

SAMR 081930Z 00000KT 9999 TS VCSH FEW040 FEW045CB 21/14 Q1007


Station Type Date Time Source
SAMR Decoded METAR 2018/12/08 19:30 UTC NOAA

San Rafael Aerodrome, Argentina (SAMR) 34-35S 068-24W 748M
Dec 08, 2018 - 02:30 PM EST / 2018.12.08 1930 UTC
Wind: Calm:0
Visibility: greater than 7 mile(s):0
Sky conditions: mostly clear
Weather: thunder; showers in the vicinity; Cumulonimbus clouds observed
Temperature: 69 F (21 C)
Dew Point: 57 F (14 C)
Relative Humidity: 64%
Pressure (altimeter): 29.74 in. Hg (1007 hPa)
ob: SAMR 081930Z 00000KT 9999 TS VCSH FEW040 FEW045CB 21/14 Q1007
cycle: 19

Station Type Date Time Source
SAMR TAF 2018/10/15 06:45 UTC NOAA

TAF TAF SAMR 150500Z 1506/1606 14005KT CAVOK TN13/1510Z TX28/1520Z


Example: see airport list